Time;durP1;ratioP1;P1;durP2;ratioP2;P2;SDS_P1;SDS_P2;PMS_P1;PMS_P2;Temp;Humidity;BMP_temperature;BMP_pressure;BME280_temperature;BME280_humidity;BME280_pressure;Samples;Min_cycle;Max_cycle;Signal;HPM_P1;HPM_P2
2023/07/07 00:02:07;;;;;;;3.60;3.50;;;;;;;-141.02;100.00;107971.50;5134055;27;20253;-61
2023/07/07 00:04:34;;;;;;;3.80;3.70;;;;;;;-141.02;100.00;107971.50;5134070;27;20189;-60
2023/07/07 00:07:03;;;;;;;4.47;4.38;;;;;;;-141.02;100.00;107971.50;5134012;27;20192;-59
2023/07/07 00:09:30;;;;;;;5.40;5.30;;;;;;;-141.02;100.00;107971.50;5133800;27;20245;-64
2023/07/07 00:11:57;;;;;;;6.40;6.30;;;;;;;-141.02;100.00;107971.50;5134164;27;20200;-55
2023/07/07 00:14:25;;;;;;;6.63;6.43;;;;;;;-141.02;100.00;107971.50;5133060;27;20224;-68
2023/07/07 00:16:52;;;;;;;6.40;6.30;;;;;;;-141.02;100.00;107971.50;5134138;27;20280;-59
2023/07/07 00:19:19;;;;;;;6.60;6.40;;;;;;;-141.02;100.00;107971.50;5133617;27;20232;-55
2023/07/07 00:21:46;;;;;;;6.80;6.60;;;;;;;-141.02;100.00;107971.50;5134127;27;20275;-65
2023/07/07 00:24:38;;;;;;;6.88;6.68;;;;;;;-141.02;100.00;107971.50;5134155;27;20188;-62
2023/07/07 00:27:06;;;;;;;7.30;7.10;;;;;;;-141.02;100.00;107971.50;5133733;27;20192;-55
2023/07/07 00:29:33;;;;;;;7.60;7.40;;;;;;;-141.02;100.00;107971.50;5133929;27;20192;-69
2023/07/07 00:32:00;;;;;;;7.40;7.20;;;;;;;-141.02;100.00;107971.50;5133545;27;20316;-64
2023/07/07 00:34:28;;;;;;;7.10;6.90;;;;;;;-141.02;100.00;107971.50;5133460;27;20192;-56
2023/07/07 00:36:55;;;;;;;7.20;7.00;;;;;;;-141.02;100.00;107971.50;5133471;27;20193;-67
2023/07/07 00:39:40;;;;;;;7.60;7.40;;;;;;;-141.02;100.00;107971.50;5133458;27;20279;-56
2023/07/07 00:42:10;;;;;;;8.05;7.85;;;;;;;-141.02;100.00;107971.50;5133377;27;20680;-62
2023/07/07 00:45:19;;;;;;;7.90;7.70;;;;;;;-141.02;100.00;107971.50;5133474;27;20192;-55
2023/07/07 00:51:13;;;;;;;7.65;7.45;;;;;;;-141.02;100.00;107971.50;5133349;27;20188;-69
2023/07/07 00:53:43;;;;;;;9.00;8.80;;;;;;;-141.02;100.00;107971.50;5133588;27;20185;-55
2023/07/07 00:56:52;;;;;;;9.50;9.20;;;;;;;-141.02;100.00;107971.50;5133413;27;20315;-63
2023/07/07 00:59:27;;;;;;;10.70;10.40;;;;;;;-141.02;100.00;107971.50;5133151;27;20197;-56
2023/07/07 01:01:57;;;;;;;10.50;10.20;;;;;;;-141.02;100.00;107971.50;5133157;27;20194;-56
2023/07/07 01:04:25;;;;;;;10.60;10.30;;;;;;;-141.02;100.00;107971.50;5133059;27;20220;-56
2023/07/07 01:06:57;;;;;;;10.10;9.80;;;;;;;-141.02;100.00;107971.50;5133018;27;20196;-56
2023/07/07 01:09:24;;;;;;;9.90;9.60;;;;;;;-141.02;100.00;107971.50;5133295;27;20185;-68
2023/07/07 01:11:51;;;;;;;10.30;10.00;;;;;;;-141.02;100.00;107971.50;5133257;27;20281;-56
2023/07/07 01:14:23;;;;;;;9.80;9.50;;;;;;;-141.02;100.00;107971.50;5132946;28;20568;-68
2023/07/07 01:17:02;;;;;;;9.50;9.20;;;;;;;-141.02;100.00;107971.50;5133251;28;20271;-71
2023/07/07 01:24:07;;;;;;;7.60;7.40;;;;;;;-141.02;100.00;107971.50;5132902;28;20188;-68
2023/07/07 01:27:15;;;;;;;6.72;6.53;;;;;;;-141.02;100.00;107971.50;5135417;27;20214;-58
2023/07/07 01:30:24;;;;;;;7.10;6.90;;;;;;;-141.02;100.00;107971.50;5137057;27;20184;-56
2023/07/07 01:32:52;;;;;;;6.85;6.65;;;;;;;-141.02;100.00;107971.50;5053634;28;20241;-57
2023/07/07 01:35:54;;;;;;;7.50;7.30;;;;;;;-141.02;100.00;107971.50;5124619;27;20234;-57
2023/07/07 01:38:33;;;;;;;7.72;7.53;;;;;;;-141.02;100.00;107971.50;5136883;27;20198;-56
2023/07/07 01:41:14;;;;;;;7.80;7.60;;;;;;;-141.02;100.00;107971.50;5137287;27;20191;-64
2023/07/07 01:44:23;;;;;;;7.88;7.68;;;;;;;-141.02;100.00;107971.50;5136910;27;20606;-58
2023/07/07 01:46:57;;;;;;;6.95;6.75;;;;;;;-141.02;100.00;107971.50;5136822;27;20704;-56
2023/07/07 01:49:31;;;;;;;6.80;6.60;;;;;;;-141.02;100.00;107971.50;5137100;27;20568;-56
2023/07/07 01:52:03;;;;;;;6.63;6.43;;;;;;;-141.02;100.00;107971.50;5136999;27;20215;-57
2023/07/07 01:55:12;;;;;;;6.78;6.57;;;;;;;-141.02;100.00;107971.50;5136964;27;20304;-59
2023/07/07 02:01:03;;;;;;;6.90;6.70;;;;;;;-141.02;100.00;107971.50;5136665;27;20650;-66
2023/07/07 02:03:31;;;;;;;6.10;6.00;;;;;;;-141.02;100.00;107971.50;5136717;27;20200;-71
2023/07/07 02:05:59;;;;;;;6.50;6.30;;;;;;;-141.02;100.00;107971.50;5136695;27;20605;-60
2023/07/07 02:08:26;;;;;;;6.70;6.50;;;;;;;-141.02;100.00;107971.50;5136349;27;20196;-60
2023/07/07 02:10:53;;;;;;;7.30;7.10;;;;;;;-141.02;100.00;107971.50;5136242;27;20581;-56
2023/07/07 02:13:20;;;;;;;8.20;8.00;;;;;;;-141.02;100.00;107971.50;5136430;27;20612;-61
2023/07/07 02:15:47;;;;;;;8.93;8.73;;;;;;;-141.02;100.00;107971.50;5136379;27;20232;-63
2023/07/07 02:18:14;;;;;;;9.82;9.52;;;;;;;-141.02;100.00;107971.50;5136234;27;20197;-56
2023/07/07 02:20:43;;;;;;;10.10;9.80;;;;;;;-141.02;100.00;107971.50;5135867;27;20792;-68
2023/07/07 02:23:10;;;;;;;9.60;9.30;;;;;;;-141.02;100.00;107971.50;5136036;27;20197;-67
2023/07/07 02:25:37;;;;;;;9.50;9.20;;;;;;;-141.02;100.00;107971.50;5135941;27;20200;-56
2023/07/07 02:28:06;;;;;;;8.10;7.90;;;;;;;-141.02;100.00;107971.50;5135938;27;20608;-56
2023/07/07 02:30:43;;;;;;;7.30;7.10;;;;;;;-141.02;100.00;107971.50;5135926;27;20192;-69
2023/07/07 02:33:10;;;;;;;7.10;6.90;;;;;;;-141.02;100.00;107971.50;5136214;27;20235;-56
2023/07/07 02:36:03;;;;;;;6.80;6.60;;;;;;;-141.02;100.00;107971.50;5136102;27;20256;-55
2023/07/07 02:38:30;;;;;;;6.35;6.25;;;;;;;-141.02;100.00;107971.50;5135081;27;20196;-59
2023/07/07 02:41:21;;;;;;;6.00;5.90;;;;;;;-141.02;100.00;107971.50;5135674;27;20198;-60
2023/07/07 02:43:47;;;;;;;5.60;5.50;;;;;;;-141.02;100.00;107971.50;5135696;27;20232;-64
2023/07/07 02:49:36;;;;;;;5.40;5.30;;;;;;;-141.02;100.00;107971.50;5135659;27;20249;-69
2023/07/07 02:52:06;;;;;;;5.30;5.20;;;;;;;-141.02;100.00;107971.50;5135761;27;20193;-56
2023/07/07 02:54:34;;;;;;;5.50;5.40;;;;;;;-141.02;100.00;107971.50;5135499;27;20196;-61
2023/07/07 02:57:01;;;;;;;5.50;5.40;;;;;;;-141.02;100.00;107971.50;5135671;27;20228;-56
2023/07/07 02:59:28;;;;;;;5.40;5.30;;;;;;;-141.02;100.00;107971.50;5134922;27;20296;-65
2023/07/07 03:08:44;;;;;;;5.57;5.47;;;;;;;-141.02;100.00;107971.50;5135282;27;20202;-60
2023/07/07 03:11:32;;;;;;;5.90;5.80;;;;;;;-141.02;100.00;107971.50;5136345;27;20207;-65
2023/07/07 03:13:59;;;;;;;5.80;5.70;;;;;;;-141.02;100.00;107971.50;5135056;27;20188;-68
2023/07/07 03:19:48;;;;;;;7.22;7.03;;;;;;;-141.02;100.00;107971.50;5127897;27;20212;-56
2023/07/07 03:23:08;;;;;;;7.60;7.40;;;;;;;-141.02;100.00;107971.50;5094034;28;20570;-63
2023/07/07 03:25:37;;;;;;;8.30;8.10;;;;;;;-141.02;100.00;107971.50;5093985;28;20198;-69
2023/07/07 03:31:41;;;;;;;9.30;9.00;;;;;;;-141.02;100.00;107971.50;5094000;28;20208;-62
2023/07/07 03:34:13;;;;;;;9.15;8.85;;;;;;;-141.02;100.00;107971.50;5094128;28;20206;-70
2023/07/07 03:36:40;;;;;;;9.65;9.35;;;;;;;-141.02;100.00;107971.50;5093975;28;20675;-56
2023/07/07 03:39:07;;;;;;;9.98;9.68;;;;;;;-141.02;100.00;107971.50;5094025;28;20190;-58
2023/07/07 03:41:36;;;;;;;10.90;10.60;;;;;;;-141.02;100.00;107971.50;5093743;28;20194;-63
2023/07/07 03:44:03;;;;;;;12.70;12.20;;;;;;;-141.02;100.00;107971.50;5093856;28;20225;-72
2023/07/07 03:46:30;;;;;;;15.30;14.60;;;;;;;-141.02;100.00;107969.53;5093541;28;20205;-69
2023/07/07 03:48:59;;;;;;;15.23;14.52;;;;;;;-141.02;100.00;107719.09;5093136;28;20208;-65
2023/07/07 03:51:28;;;;;;;15.32;14.63;;;;;;;-141.02;100.00;106717.56;5093133;28;20194;-56
2023/07/07 03:53:55;;;;;;;15.05;14.35;;;;;;;-141.02;100.00;106717.56;5093462;28;20255;-58
2023/07/07 03:56:23;;;;;;;15.82;15.02;;;;;;;-141.02;100.00;106467.22;5093866;28;20288;-72
2023/07/07 03:58:51;;;;;;;15.73;14.93;;;;;;;-141.02;100.00;106216.91;5093650;28;20717;-66
2023/07/07 04:01:18;;;;;;;16.65;15.75;;;;;;;-141.02;100.00;106467.22;5093251;28;20231;-68
2023/07/07 04:03:47;;;;;;;16.25;15.35;;;;;;;-141.02;100.00;106216.91;5093577;28;20189;-73
2023/07/07 04:06:14;;;;;;;16.58;15.57;;;;;;;-141.02;100.00;105466.03;5093215;28;20208;-66
2023/07/07 04:08:41;;;;;;;17.90;16.80;;;;;;;-141.02;100.00;104465.16;5093183;28;20233;-69
2023/07/07 04:11:11;;;;;;;16.77;15.68;;;;;;;-141.02;100.00;103964.81;5093436;28;20619;-60
2023/07/07 04:13:40;;;;;;;17.23;16.02;;;;;;;-141.02;100.00;104465.16;5093388;28;20201;-74
2023/07/07 04:16:11;;;;;;;16.92;15.82;;;;;;;-141.02;100.00;103714.66;5092887;28;20703;-63
2023/07/07 04:18:39;;;;;;;16.05;15.05;;;;;;;-141.02;100.00;103964.81;5093286;28;20448;-70
2023/07/07 04:21:09;;;;;;;15.63;14.63;;;;;;;-141.02;100.00;104465.16;5114795;27;20307;-59
2023/07/07 04:23:37;;;;;;;15.52;14.63;;;;;;;-141.02;100.00;104465.16;5134086;27;20226;-68
2023/07/07 04:26:05;;;;;;;15.38;14.48;;;;;;;-141.02;100.00;104965.56;5134061;27;20192;-68
2023/07/07 04:28:32;;;;;;;15.18;14.38;;;;;;;-141.02;100.00;105215.78;5133795;27;20266;-63
2023/07/07 04:31:08;;;;;;;14.70;13.90;;;;;;;-141.02;100.00;105466.03;5133978;27;20197;-69
2023/07/07 04:33:37;;;;;;;13.77;13.07;;;;;;;-141.02;100.00;105716.31;5133637;27;20203;-57
2023/07/07 04:36:19;;;;;;;13.48;12.88;;;;;;;-141.02;100.00;105966.59;5133484;27;20253;-75
2023/07/07 04:38:47;;;;;;;13.55;12.95;;;;;;;-141.02;100.00;106717.56;5133487;27;20595;-65
2023/07/07 04:41:16;;;;;;;13.18;12.68;;;;;;;-141.02;100.00;107218.31;5133502;27;20188;-61
2023/07/07 04:43:46;;;;;;;12.95;12.45;;;;;;;-141.02;100.00;107468.69;5133563;27;20283;-66
2023/07/07 04:46:15;;;;;;;12.70;12.20;;;;;;;-141.02;100.00;107468.69;5133721;27;20246;-68
2023/07/07 04:48:44;;;;;;;12.35;11.85;;;;;;;-141.02;100.00;107468.69;5133378;27;20200;-64
2023/07/07 04:51:12;;;;;;;12.30;11.80;;;;;;;-141.02;100.00;107719.09;5133716;27;20331;-62
2023/07/07 04:53:41;;;;;;;11.95;11.55;;;;;;;-141.02;100.00;107719.09;5134461;27;20260;-68
2023/07/07 04:56:10;;;;;;;12.60;12.10;;;;;;;-141.02;100.00;107719.09;5133202;27;20216;-75
2023/07/07 04:58:38;;;;;;;12.23;11.77;;;;;;;-141.02;100.00;107969.53;5133808;27;20192;-69
2023/07/07 05:01:07;;;;;;;11.95;11.55;;;;;;;-141.02;100.00;107969.53;5133149;27;20193;-66
2023/07/07 05:03:34;;;;;;;12.70;12.20;;;;;;;-141.02;100.00;107969.53;5133448;27;20207;-61
2023/07/07 05:06:03;;;;;;;12.07;11.63;;;;;;;-141.02;100.00;107971.50;5133158;27;20196;-61
2023/07/07 05:08:32;;;;;;;12.40;11.90;;;;;;;-141.02;100.00;107971.50;5133035;27;20565;-56
2023/07/07 05:10:59;;;;;;;12.10;11.60;;;;;;;-141.02;100.00;107971.50;5133395;27;20247;-67
2023/07/07 05:13:26;;;;;;;11.77;11.38;;;;;;;-141.02;100.00;107971.50;5133365;27;20196;-75
2023/07/07 05:16:00;;;;;;;12.25;11.75;;;;;;;-141.02;100.00;107971.50;5133190;28;20278;-59
2023/07/07 05:18:27;;;;;;;12.57;12.07;;;;;;;-141.02;100.00;107971.50;5133229;28;20216;-74
2023/07/07 05:20:54;;;;;;;12.43;11.93;;;;;;;-141.02;100.00;107971.50;5132782;28;20220;-71
2023/07/07 05:23:25;;;;;;;12.88;12.38;;;;;;;-141.02;100.00;107971.50;5133546;28;20253;-75
2023/07/07 05:25:52;;;;;;;14.50;13.80;;;;;;;-141.02;100.00;107969.53;5133189;28;20228;-72
2023/07/07 05:28:20;;;;;;;13.82;13.23;;;;;;;-141.02;100.00;107969.53;5132984;27;20197;-62
2023/07/07 05:30:49;;;;;;;14.10;13.40;;;;;;;-141.02;100.00;107969.53;5133139;27;20200;-56
2023/07/07 05:33:21;;;;;;;14.25;13.55;;;;;;;-141.02;100.00;107969.53;5132945;27;20239;-67
2023/07/07 05:35:49;;;;;;;14.75;14.05;;;;;;;-141.02;100.00;107969.53;5132787;27;20202;-72
2023/07/07 05:38:17;;;;;;;14.57;13.88;;;;;;;-141.02;100.00;107719.09;5133166;28;20609;-72
2023/07/07 05:40:52;;;;;;;14.98;14.18;;;;;;;-141.02;100.00;107719.09;5133089;28;20200;-76
2023/07/07 05:43:21;;;;;;;14.70;14.00;;;;;;;-141.02;100.00;107468.69;5133057;28;20204;-66
2023/07/07 05:45:54;;;;;;;14.95;14.15;;;;;;;-141.02;100.00;107468.69;5133025;28;20224;-74
2023/07/07 05:48:21;;;;;;;15.35;14.55;;;;;;;-141.02;100.00;107218.31;5133218;27;20214;-56
2023/07/07 05:50:48;;;;;;;15.00;14.23;;;;;;;-141.02;100.00;107468.69;5132642;28;20730;-57
2023/07/07 05:53:18;;;;;;;15.20;14.50;;;;;;;-141.02;100.00;107468.69;5132967;27;20265;-61
2023/07/07 05:55:53;;;;;;;15.18;14.38;;;;;;;-141.02;100.00;106967.91;5132632;28;20200;-61
2023/07/07 05:58:19;;;;;;;15.52;14.73;;;;;;;-141.02;100.00;106717.56;5132567;28;20689;-56
2023/07/07 06:00:49;;;;;;;15.70;14.80;;;;;;;-141.02;100.00;106717.56;5133095;28;20301;-63
2023/07/07 06:03:22;;;;;;;15.85;14.95;;;;;;;-141.02;100.00;106467.22;5132879;27;20224;-56
2023/07/07 06:05:50;;;;;;;15.77;14.88;;;;;;;-141.02;100.00;106216.91;5132911;27;20257;-58
2023/07/07 06:08:23;;;;;;;15.80;14.90;;;;;;;-141.02;100.00;105966.59;5132806;28;20197;-76
2023/07/07 06:10:52;;;;;;;15.57;14.77;;;;;;;-141.02;100.00;106216.91;5132818;28;20193;-59
2023/07/07 06:13:23;;;;;;;15.65;14.85;;;;;;;-141.02;100.00;105966.59;5134351;27;20688;-61
2023/07/07 06:15:51;;;;;;;14.80;14.10;;;;;;;-141.02;100.00;106467.22;5136508;27;20203;-57
2023/07/07 06:18:22;;;;;;;16.13;15.35;;;;;;;-141.02;100.00;106717.56;5136477;27;20319;-65
2023/07/07 06:20:51;;;;;;;20.77;19.30;;;;;;;-141.02;100.00;106216.91;5136305;27;20236;-72
2023/07/07 06:23:21;;;;;;;15.45;14.65;;;;;;;-141.02;100.00;106467.22;5136133;27;20241;-56
2023/07/07 06:25:53;;;;;;;15.80;14.90;;;;;;;-141.02;100.00;105966.59;5136080;27;20202;-57
2023/07/07 06:28:21;;;;;;;15.70;14.80;;;;;;;-141.02;100.00;105716.31;5136308;27;20204;-58
2023/07/07 06:30:52;;;;;;;15.80;14.90;;;;;;;-141.02;100.00;105466.03;5135974;27;20719;-58
2023/07/07 06:33:22;;;;;;;15.10;14.30;;;;;;;-141.02;100.00;105966.59;5136803;27;20678;-59
2023/07/07 06:35:50;;;;;;;15.40;14.60;;;;;;;-141.02;100.00;105966.59;5136060;27;20192;-62
2023/07/07 06:38:23;;;;;;;16.40;15.40;;;;;;;-141.02;100.00;105716.31;5135782;27;20224;-56
2023/07/07 06:40:53;;;;;;;16.55;15.55;;;;;;;-141.02;100.00;105466.03;5135994;27;20200;-59
2023/07/07 06:43:22;;;;;;;16.65;15.65;;;;;;;-141.02;100.00;104465.16;5135748;27;20678;-57
2023/07/07 06:45:57;;;;;;;16.38;15.38;;;;;;;-141.02;100.00;104214.97;5136013;27;20214;-66
2023/07/07 06:48:24;;;;;;;16.23;15.23;;;;;;;-141.02;100.00;104465.16;5135708;27;20206;-56
2023/07/07 06:50:51;;;;;;;16.10;15.20;;;;;;;-141.02;100.00;104465.16;5135828;27;20193;-59
2023/07/07 06:53:24;;;;;;;16.90;15.90;;;;;;;-141.02;100.00;103964.81;5135891;27;20271;-58
2023/07/07 06:55:53;;;;;;;16.35;15.35;;;;;;;-141.02;100.00;103964.81;5135778;27;20192;-60
2023/07/07 06:58:22;;;;;;;16.20;15.30;;;;;;;-141.02;100.00;103964.81;5135700;27;20225;-59
2023/07/07 07:00:55;;;;;;;15.85;14.95;;;;;;;-141.02;100.00;103964.81;5135375;27;20791;-61
2023/07/07 07:03:22;;;;;;;15.95;15.05;;;;;;;-141.02;100.00;103714.66;5135432;27;20193;-64
2023/07/07 07:05:52;;;;;;;16.05;15.15;;;;;;;-141.02;100.00;103964.81;5135552;27;20243;-63
2023/07/07 07:08:21;;;;;;;15.90;15.00;;;;;;;-141.02;100.00;103964.81;5135566;27;20197;-64
2023/07/07 07:10:53;;;;;;;15.38;14.48;;;;;;;-141.02;100.00;104214.97;5135566;27;20188;-59
2023/07/07 07:13:22;;;;;;;15.73;14.82;;;;;;;-141.02;100.00;104214.97;5135111;27;20264;-64
2023/07/07 07:15:52;;;;;;;15.50;14.60;;;;;;;-141.02;100.00;103964.81;5135678;27;20203;-73
2023/07/07 07:18:22;;;;;;;16.05;15.05;;;;;;;-141.02;100.00;103464.53;5135065;27;20315;-66
2023/07/07 07:20:54;;;;;;;16.00;15.10;;;;;;;-141.02;100.00;103714.66;5134443;27;20256;-66
2023/07/07 07:23:22;;;;;;;15.50;14.60;;;;;;;-141.02;100.00;103964.81;5134764;27;20700;-58
2023/07/07 07:25:53;;;;;;;15.13;14.32;;;;;;;-141.02;100.00;103714.66;5135168;27;20249;-70
2023/07/07 07:28:22;;;;;;;14.93;14.13;;;;;;;-141.02;100.00;103714.66;5135091;27;20214;-60
2023/07/07 07:30:52;;;;;;;14.73;13.93;;;;;;;-141.02;100.00;103714.66;5135115;27;20276;-67
2023/07/07 07:33:23;;;;;;;15.45;14.55;;;;;;;-141.02;100.00;103964.81;5134907;27;20193;-64
2023/07/07 07:35:52;;;;;;;15.40;14.50;;;;;;;-141.02;100.00;104214.97;5134674;27;20196;-57
2023/07/07 07:38:21;;;;;;;15.90;15.00;;;;;;;-141.02;100.00;103964.81;5134563;27;20263;-56
2023/07/07 07:40:54;;;;;;;16.15;15.25;;;;;;;-141.02;100.00;102964.34;5134527;27;20658;-75
2023/07/07 07:43:21;;;;;;;16.90;15.90;;;;;;;-141.02;100.00;102964.34;5134804;27;20288;-62
2023/07/07 07:45:50;;;;;;;16.58;15.57;;;;;;;-141.02;100.00;102964.34;5134713;27;20245;-57
2023/07/07 07:48:23;;;;;;;16.23;15.18;;;;;;;-141.02;100.00;102714.25;5134689;27;20223;-66
2023/07/07 07:50:51;;;;;;;17.10;15.90;;;;;;;-141.02;100.00;102714.25;5134584;27;20231;-58
2023/07/07 07:53:22;;;;;;;16.85;15.65;;;;;;;-141.02;100.00;101464.19;5134648;27;20253;-58
2023/07/07 07:55:53;;;;;;;17.58;16.27;;;;;;;-141.02;100.00;101964.16;5134548;27;20196;-64
2023/07/07 07:58:22;;;;;;;18.95;17.45;;;;;;;-141.02;100.00;101214.22;5134357;27;20263;-61
2023/07/07 08:00:51;;;;;;;18.63;17.02;;;;;;;-141.02;99.31;99464.97;5134107;27;20192;-57
2023/07/07 08:03:18;;;;;;;18.17;16.67;;;;;;;-141.02;98.01;99964.66;5134317;27;20204;-57
2023/07/07 08:05:45;;;;;;;18.30;16.80;;;;;;;-141.02;96.91;99464.97;5133987;27;20245;-62
2023/07/07 08:08:13;;;;;;;18.17;16.70;;;;;;;-141.02;99.88;99714.81;5134290;27;20200;-62
2023/07/07 08:10:40;;;;;;;17.80;16.45;;;;;;;-141.02;100.00;99964.66;5134149;27;20188;-60
2023/07/07 08:13:08;;;;;;;17.65;16.25;;;;;;;-141.02;95.96;99464.97;5134216;27;20192;-68
2023/07/07 08:15:35;;;;;;;18.08;16.67;;;;;;;-141.02;100.00;100714.34;5134208;27;20269;-64
2023/07/07 08:18:02;;;;;;;18.15;16.75;;;;;;;-141.02;96.12;99714.81;5133827;27;20263;-63
2023/07/07 08:20:30;;;;;;;19.23;17.63;;;;;;;-141.02;92.49;98715.56;5133490;27;20232;-62
2023/07/07 08:22:57;;;;;;;19.70;18.10;;;;;;;-141.02;91.89;98465.78;5134012;27;20199;-68
2023/07/07 08:25:27;;;;;;;19.52;17.92;;;;;;;-141.02;91.88;98465.78;5133695;27;20199;-60
2023/07/07 08:27:54;;;;;;;19.27;17.67;;;;;;;-141.02;93.68;98216.03;5133989;27;20200;-57
2023/07/07 08:30:22;;;;;;;19.48;17.80;;;;;;;-141.02;92.11;97966.31;5133697;27;20658;-58
2023/07/07 08:32:49;;;;;;;19.40;17.70;;;;;;;-141.02;91.28;96967.56;5133889;27;20611;-57
2023/07/07 08:35:16;;;;;;;18.80;17.20;;;;;;;-141.02;95.50;97466.91;5133023;27;20199;-65
2023/07/07 08:37:43;;;;;;;18.05;16.65;;;;;;;-141.02;95.91;96967.56;5133688;27;20307;-58
2023/07/07 08:40:16;;;;;;;17.77;16.48;;;;;;;-141.02;100.00;97217.22;5133818;27;20200;-57
2023/07/07 08:42:43;;;;;;;18.58;17.08;;;;;;;-141.02;98.67;98216.03;5133883;27;20185;-57
2023/07/07 08:45:15;;;;;;;23.63;21.95;;;;;;;-141.02;98.78;98965.34;5133781;27;20272;-57
2023/07/07 08:47:58;;;;;;;18.50;17.10;;;;;;;-141.02;95.53;98715.56;5133504;27;20191;-57
2023/07/07 08:50:33;;;;;;;19.90;18.30;;;;;;;-141.02;92.91;98216.03;5133825;27;20257;-58
2023/07/07 08:53:12;;;;;;;18.85;17.35;;;;;;;-141.02;92.49;97217.22;5133272;27;20228;-57
2023/07/07 08:55:49;;;;;;;18.70;17.20;;;;;;;-141.02;92.93;97716.59;5133346;27;20646;-58
2023/07/07 08:58:20;;;;;;;19.20;17.70;;;;;;;-141.02;94.68;97716.59;5133248;27;20298;-56
2023/07/07 09:00:59;;;;;;;19.73;18.13;;;;;;;-141.02;91.25;98465.78;5133885;27;20184;-57
2023/07/07 09:03:47;;;;;;;19.23;17.52;;;;;;;-141.02;85.63;98216.03;5133455;27;20267;-58
2023/07/07 09:06:25;;;;;;;19.33;17.63;;;;;;;-141.02;84.69;98216.03;5133118;27;20180;-63
2023/07/07 09:08:58;;;;;;;23.38;21.38;;;;;;;-141.02;86.12;98715.56;5133087;27;20279;-59
2023/07/07 09:11:35;;;;;;;19.52;17.83;;;;;;;-141.02;83.17;96967.56;5133032;27;20188;-61
2023/07/07 09:14:02;;;;;;;19.00;17.40;;;;;;;-141.02;88.47;97716.59;5133058;27;20637;-57
2023/07/07 09:16:33;;;;;;;19.15;17.55;;;;;;;-141.02;86.92;97716.59;5132908;28;20192;-58
2023/07/07 09:19:06;;;;;;;19.55;17.90;;;;;;;-141.02;89.21;96717.94;5132937;28;20215;-61
2023/07/07 09:21:42;;;;;;;18.60;17.00;;;;;;;-141.02;92.77;97716.59;5133061;27;20232;-57
2023/07/07 09:24:18;;;;;;;19.48;17.85;;;;;;;-141.02;90.98;95719.53;5133395;27;20184;-57
2023/07/07 09:26:48;;;;;;;20.00;18.40;;;;;;;-141.02;92.01;94721.44;5133176;27;20189;-70
2023/07/07 09:29:22;;;;;;;19.25;17.75;;;;;;;-141.02;93.53;95719.53;5133159;27;20304;-58
2023/07/07 09:31:49;;;;;;;18.80;17.40;;;;;;;-141.02;94.78;96967.56;5133161;28;20219;-66
2023/07/07 09:34:18;;;;;;;19.70;18.10;;;;;;;-141.02;91.41;95470.00;5133224;27;20197;-59
2023/07/07 09:36:55;;;;;;;18.55;17.05;;;;;;;-141.02;94.82;96218.69;5133052;28;20228;-59
2023/07/07 09:39:46;;;;;;;18.63;17.13;;;;;;;-141.02;92.41;95969.13;5132693;28;20261;-62
2023/07/07 09:42:32;;;;;;;18.13;16.73;;;;;;;-141.02;96.59;95719.53;5133066;28;20195;-63
2023/07/07 09:45:08;;;;;;;17.98;16.58;;;;;;;-141.02;95.27;96468.31;5132918;28;20651;-69
2023/07/07 09:47:43;;;;;;;18.63;17.13;;;;;;;-141.02;93.42;96717.94;5135239;27;20241;-59
2023/07/07 09:50:16;;;;;;;18.52;17.02;;;;;;;-141.02;92.72;96717.94;5137047;27;20240;-57
2023/07/07 09:52:48;;;;;;;18.00;16.60;;;;;;;-141.02;94.18;97466.91;5137113;27;20224;-66
2023/07/07 09:55:21;;;;;;;18.88;17.38;;;;;;;-141.02;90.49;96468.31;5137127;27;20262;-64
2023/07/07 09:57:57;;;;;;;18.73;17.23;;;;;;;-141.02;89.38;96218.69;5136575;27;20691;-58
2023/07/07 10:00:26;;;;;;;19.13;17.63;;;;;;;-141.02;88.47;95719.53;5136949;27;20602;-57
2023/07/07 10:02:54;;;;;;;18.70;17.20;;;;;;;-141.02;92.85;95969.13;5137079;27;20260;-65
2023/07/07 10:05:31;;;;;;;20.45;18.67;;;;;;;-141.02;87.58;94970.94;5136778;27;20679;-65
2023/07/07 10:08:00;;;;;;;19.13;17.52;;;;;;;-141.02;88.87;95969.13;5136985;27;20188;-64
2023/07/07 10:10:27;;;;;;;18.70;17.10;;;;;;;-141.02;87.71;96717.94;5136389;27;20199;-57
2023/07/07 10:12:57;;;;;;;18.90;17.20;;;;;;;-141.02;88.46;95470.00;5136237;27;20232;-63
2023/07/07 10:15:45;;;;;;;19.48;17.77;;;;;;;-141.02;85.15;96218.69;5136294;27;20199;-68
2023/07/07 10:18:17;;;;;;;19.65;17.88;;;;;;;-141.02;87.03;94721.44;5136503;27;20265;-59
2023/07/07 10:20:45;;;;;;;19.40;17.70;;;;;;;-141.02;89.89;93723.63;5136062;27;20268;-67
2023/07/07 10:23:13;;;;;;;18.70;17.10;;;;;;;-141.02;94.38;92726.13;5136445;27;20214;-70
2023/07/07 10:25:41;;;;;;;17.90;16.50;;;;;;;-141.02;97.94;92975.47;5136145;27;20199;-58
2023/07/07 10:28:13;;;;;;;17.10;15.80;;;;;;;-141.02;99.82;93224.84;5136103;27;20196;-67
2023/07/07 10:30:41;;;;;;;17.15;15.90;;;;;;;-141.02;100.00;93723.63;5136047;27;20217;-57
2023/07/07 10:33:11;;;;;;;20.55;19.35;;;;;;;-141.02;100.00;95470.00;5136351;27;20265;-56
2023/07/07 10:35:39;;;;;;;25.38;24.15;;;;;;;-141.02;100.00;96218.69;5136716;27;20200;-60
2023/07/07 10:38:09;;;;;;;27.20;25.80;;;;;;;-141.02;100.00;100214.53;5136114;27;20307;-66
2023/07/07 10:40:36;;;;;;;29.35;27.85;;;;;;;-141.02;100.00;102714.25;5136728;27;20224;-61
2023/07/07 10:43:05;;;;;;;28.40;27.00;;;;;;;-141.02;100.00;102214.16;5135854;27;20242;-60
2023/07/07 10:45:32;;;;;;;28.80;27.23;;;;;;;-141.02;100.00;99464.97;5135992;27;20232;-57
2023/07/07 10:47:59;;;;;;;25.13;23.92;;;;;;;-141.02;100.00;99964.66;5136001;27;20214;-63
2023/07/07 10:50:34;;;;;;;21.02;20.13;;;;;;;-141.02;100.00;100464.44;5136007;27;20196;-60
2023/07/07 10:53:21;;;;;;;19.05;18.05;;;;;;;-141.02;100.00;99464.97;5136168;27;20194;-59
2023/07/07 10:56:04;;;;;;;18.75;17.35;;;;;;;-141.02;100.00;96218.69;5135647;27;20181;-56
2023/07/07 10:58:45;;;;;;;19.10;17.60;;;;;;;-141.02;100.00;96468.31;5134850;27;20216;-57
2023/07/07 11:01:33;;;;;;;22.00;19.90;;;;;;;-141.02;91.53;95470.00;5135522;27;20224;-56
2023/07/07 11:04:27;;;;;;;22.92;20.63;;;;;;;-141.02;85.35;94721.44;5135401;27;20214;-56
2023/07/07 11:07:05;;;;;;;23.88;21.58;;;;;;;-141.02;82.58;94721.44;5135683;27;20257;-59
2023/07/07 11:09:47;;;;;;;23.77;21.48;;;;;;;-141.02;80.86;94721.44;5135674;27;20271;-65
2023/07/07 11:12:28;;;;;;;21.80;19.70;;;;;;;-141.02;82.04;93224.84;5135775;27;20196;-57
2023/07/07 11:15:12;;;;;;;21.25;19.25;;;;;;;-141.02;86.44;93474.22;5135228;27;20213;-57
2023/07/07 11:18:01;;;;;;;21.20;19.30;;;;;;;-141.02;90.02;93224.84;5135033;27;20711;-57
2023/07/07 11:20:50;;;;;;;20.50;18.60;;;;;;;-141.02;90.73;93224.84;5135192;27;20228;-58
2023/07/07 11:23:46;;;;;;;20.30;18.40;;;;;;;-141.02;92.00;93973.06;5135397;27;20271;-58
2023/07/07 11:26:22;;;;;;;20.45;18.55;;;;;;;-141.02;81.41;92726.13;5134914;27;20197;-58
2023/07/07 11:28:58;;;;;;;20.75;18.65;;;;;;;-141.02;85.77;93474.22;5134981;27;20188;-63
2023/07/07 11:31:38;;;;;;;21.42;19.33;;;;;;;-141.02;84.43;91728.88;5135312;27;20245;-60
2023/07/07 11:34:17;;;;;;;20.35;18.45;;;;;;;-141.02;89.41;89486.16;5135193;27;20268;-56
2023/07/07 11:36:56;;;;;;;41.00;37.85;;;;;;;-141.02;100.00;93474.22;5134698;27;20275;-63
2023/07/07 11:39:40;;;;;;;40.45;37.85;;;;;;;-141.02;100.00;95969.13;5134877;27;20212;-63
2023/07/07 11:42:34;;;;;;;37.60;34.88;;;;;;;-141.02;100.00;99714.81;5134932;27;20184;-65
2023/07/07 12:24:49;;;;;;;20.00;19.10;;;;;;;-141.02;100.00;107971.50;5151599;27;20549;-61
2023/07/07 12:27:21;;;;;;;22.35;21.45;;;;;;;-141.02;100.00;107971.50;5151360;27;20187;-63